Time;durP1;ratioP1;P1;durP2;ratioP2;P2;SDS_P1;SDS_P2;PMS_P1;PMS_P2;Temp;Humidity;BMP_temperature;BMP_pressure;BME280_temperature;BME280_humidity;BME280_pressure;Samples;Min_cycle;Max_cycle;Signal;HPM_P1;HPM_P2
2021/07/19 00:00:40;0.00;0.00;0.62;0.00;0.00;0.62;;;;;23.00;1.00;;;;;;2576031;55;1117;-84
2021/07/19 00:03:06;13304.00;0.04;23.67;0.00;0.00;0.62;;;;;23.10;1.00;;;;;;2571684;56;1216;-84
2021/07/19 00:05:35;2840.00;0.01;5.54;0.00;0.00;0.62;;;;;23.20;1.00;;;;;;2571600;56;1253;-84
2021/07/19 00:08:02;183090.00;0.61;316.81;40885.00;0.14;71.42;;;;;23.20;1.00;;;;;;2572088;56;1167;-84
2021/07/19 00:10:28;0.00;0.00;0.62;0.00;0.00;0.62;;;;;23.30;1.00;;;;;;2574242;55;1220;-84
2021/07/19 00:12:55;0.00;0.00;0.62;0.00;0.00;0.62;;;;;23.20;1.00;;;;;;2571523;56;1146;-84
2021/07/19 00:15:25;0.00;0.00;0.62;0.00;0.00;0.62;;;;;23.10;1.00;;;;;;2571533;56;1967;-84
2021/07/19 00:17:53;0.00;0.00;0.62;0.00;0.00;0.62;;;;;23.00;1.00;;;;;;2571066;56;1133;-84
2021/07/19 00:20:21;111080.00;0.37;192.69;0.00;0.00;0.62;;;;;22.80;1.00;;;;;;2572175;55;1152;-84
2021/07/19 00:22:49;0.00;0.00;0.62;0.00;0.00;0.62;;;;;22.40;1.00;;;;;;2571906;56;1125;-84
2021/07/19 00:25:18;0.00;0.00;0.62;0.00;0.00;0.62;;;;;22.40;1.00;;;;;;2571892;56;1113;-84
2021/07/19 00:27:47;236824.00;0.79;409.29;62491.00;0.21;108.78;;;;;22.50;1.00;;;;;;2571769;56;1249;-84
2021/07/19 00:30:16;52529.00;0.18;91.56;0.00;0.00;0.62;;;;;22.80;1.00;;;;;;2571196;56;1149;-84
2021/07/19 00:32:44;110705.00;0.37;192.05;41243.00;0.14;72.04;;;;;22.80;1.00;;;;;;2571296;56;1134;-85
2021/07/19 00:35:12;38132.00;0.13;66.66;0.00;0.00;0.62;;;;;22.70;1.00;;;;;;2571933;56;1078;-84
2021/07/19 00:37:40;106618.00;0.36;184.99;0.00;0.00;0.62;;;;;22.60;1.00;;;;;;2570968;55;1982;-84
2021/07/19 00:40:11;46976.00;0.16;81.96;0.00;0.00;0.62;;;;;22.60;1.00;;;;;;2571809;56;1066;-85
2021/07/19 00:42:40;38884.00;0.13;67.96;0.00;0.00;0.62;;;;;22.70;1.00;;;;;;2571817;56;1136;-84
2021/07/19 00:45:10;70743.00;0.24;123.04;0.00;0.00;0.62;;;;;22.70;1.00;;;;;;2573678;56;1081;-84
2021/07/19 00:47:37;20560.00;0.07;36.24;0.00;0.00;0.62;;;;;22.50;1.00;;;;;;2571410;55;1343;-84
2021/07/19 00:50:04;64584.00;0.22;112.40;0.00;0.00;0.62;;;;;22.30;1.00;;;;;;2571817;56;1094;-84
2021/07/19 00:52:32;0.00;0.00;0.62;0.00;0.00;0.62;;;;;22.00;1.50;;;;;;2572240;56;1138;-85
2021/07/19 00:54:59;12716.00;0.04;22.65;0.00;0.00;0.62;;;;;22.10;1.00;;;;;;2572036;56;1167;-85
2021/07/19 00:57:29;89576.00;0.30;155.58;0.00;0.00;0.62;;;;;22.10;1.00;;;;;;2572253;56;2006;-84
2021/07/19 00:59:58;0.00;0.00;0.62;0.00;0.00;0.62;;;;;22.20;1.30;;;;;;2571649;56;1228;-85
2021/07/19 01:02:26;0.00;0.00;0.62;0.00;0.00;0.62;;;;;22.30;1.00;;;;;;2571954;56;1108;-84
2021/07/19 01:04:54;60144.00;0.20;104.73;0.00;0.00;0.62;;;;;22.40;1.00;;;;;;2572235;56;1129;-85
2021/07/19 01:07:23;0.00;0.00;0.62;0.00;0.00;0.62;;;;;22.50;1.00;;;;;;2572264;56;1229;-84
2021/07/19 01:09:51;187517.00;0.63;324.43;0.00;0.00;0.62;;;;;22.70;1.00;;;;;;2572336;56;1118;-85
2021/07/19 01:12:19;59243.00;0.20;103.17;0.00;0.00;0.62;;;;;22.80;1.00;;;;;;2572197;56;1184;-84
2021/07/19 01:14:48;32293.00;0.11;56.55;0.00;0.00;0.62;;;;;22.90;1.00;;;;;;2572378;55;1144;-84
2021/07/19 01:17:15;25156.00;0.08;44.20;0.00;0.00;0.62;;;;;23.00;1.00;;;;;;2571738;56;1967;-85
2021/07/19 01:19:49;14200.00;0.05;25.22;0.00;0.00;0.62;;;;;22.90;1.00;;;;;;2572256;56;1126;-85
2021/07/19 01:22:50;0.00;0.00;0.62;0.00;0.00;0.62;;;;;22.80;1.00;;;;;;2571610;55;1160;-85
2021/07/19 01:25:39;7153.00;0.02;13.02;0.00;0.00;0.62;;;;;22.30;1.00;;;;;;2571468;56;1109;-85
2021/07/19 01:28:28;44241.00;0.15;77.23;0.00;0.00;0.62;;;;;21.90;1.00;;;;;;2571031;56;2094;-85
2021/07/19 01:30:59;34978.00;0.12;61.20;0.00;0.00;0.62;;;;;21.60;1.20;;;;;;2571630;56;1128;-85
2021/07/19 01:33:27;4087.00;0.01;7.70;0.00;0.00;0.62;;;;;21.80;1.10;;;;;;2572073;56;1102;-85
2021/07/19 01:35:58;0.00;0.00;0.62;0.00;0.00;0.62;;;;;21.70;1.20;;;;;;2573981;55;1909;-85
2021/07/19 01:38:25;145468.00;0.48;252.00;43419.00;0.14;75.80;;;;;21.60;1.30;;;;;;2572093;56;1137;-85
2021/07/19 01:40:54;92447.00;0.31;160.53;0.00;0.00;0.62;;;;;21.60;1.60;;;;;;2572107;56;1141;-85
2021/07/19 01:43:23;89709.00;0.30;155.81;0.00;0.00;0.62;;;;;21.60;2.40;;;;;;2572104;56;1083;-85
2021/07/19 01:45:51;0.00;0.00;0.62;0.00;0.00;0.62;;;;;21.80;1.20;;;;;;2572447;56;1330;-85
2021/07/19 01:48:19;2634.00;0.01;5.19;0.00;0.00;0.62;;;;;21.80;1.00;;;;;;2572397;56;1121;-85
2021/07/19 01:50:48;36819.00;0.12;64.38;0.00;0.00;0.62;;;;;22.00;1.00;;;;;;2572254;56;1129;-85
2021/07/19 01:53:16;0.00;0.00;0.62;0.00;0.00;0.62;;;;;22.20;1.00;;;;;;2572204;56;1128;-85
2021/07/19 01:55:43;42427.00;0.14;74.09;0.00;0.00;0.62;;;;;22.30;1.00;;;;;;2572021;56;1328;-85
2021/07/19 01:58:11;79493.00;0.26;138.16;9883.00;0.03;17.75;;;;;21.90;1.00;;;;;;2572846;56;1956;-85
2021/07/19 02:00:38;113092.00;0.38;196.17;0.00;0.00;0.62;;;;;22.00;1.00;;;;;;2573005;56;1160;-85
2021/07/19 02:03:06;3974.00;0.01;7.51;0.00;0.00;0.62;;;;;22.00;1.00;;;;;;2573208;56;1093;-85
2021/07/19 02:05:33;0.00;0.00;0.62;0.00;0.00;0.62;;;;;22.10;1.00;;;;;;2572765;56;1348;-85
2021/07/19 02:08:02;172721.00;0.58;298.95;62292.00;0.21;108.44;;;;;22.20;1.00;;;;;;2572221;56;1153;-85
2021/07/19 02:10:30;20732.00;0.07;36.54;0.00;0.00;0.62;;;;;22.40;1.00;;;;;;2572321;56;1117;-85
2021/07/19 02:13:00;0.00;0.00;0.62;0.00;0.00;0.62;;;;;22.60;1.00;;;;;;2572832;56;1101;-85
2021/07/19 02:15:28;58376.00;0.19;101.67;0.00;0.00;0.62;;;;;22.80;1.00;;;;;;2572331;56;1282;-85
2021/07/19 02:17:57;0.00;0.00;0.62;0.00;0.00;0.62;;;;;22.60;1.00;;;;;;2572279;56;1917;-87
2021/07/19 02:20:27;0.00;0.00;0.62;0.00;0.00;0.62;;;;;22.40;1.00;;;;;;2572262;56;1236;-85
2021/07/19 02:22:56;0.00;0.00;0.62;0.00;0.00;0.62;;;;;22.30;1.00;;;;;;2572545;56;1134;-84
2021/07/19 02:25:24;0.00;0.00;0.62;0.00;0.00;0.62;;;;;22.30;1.00;;;;;;2572271;56;1112;-85
2021/07/19 02:27:53;23569.00;0.08;41.45;0.00;0.00;0.62;;;;;22.20;1.00;;;;;;2572101;56;1160;-85
2021/07/19 02:30:22;0.00;0.00;0.62;0.00;0.00;0.62;;;;;22.00;1.00;;;;;;2572536;56;1150;-85
2021/07/19 02:32:53;18059.00;0.06;31.91;0.00;0.00;0.62;;;;;22.10;1.00;;;;;;2572682;56;1110;-85
2021/07/19 02:35:23;52257.00;0.17;91.09;0.00;0.00;0.62;;;;;22.30;1.00;;;;;;2574659;55;1111;-85
2021/07/19 02:37:54;0.00;0.00;0.62;0.00;0.00;0.62;;;;;22.20;1.00;;;;;;2572248;56;1960;-85
2021/07/19 02:40:24;0.00;0.00;0.62;0.00;0.00;0.62;;;;;21.70;1.00;;;;;;2572663;56;1062;-85
2021/07/19 02:42:56;108661.00;0.36;188.52;0.00;0.00;0.62;;;;;21.60;1.00;;;;;;2572824;56;1099;-85
2021/07/19 02:45:25;0.00;0.00;0.62;0.00;0.00;0.62;;;;;21.60;1.00;;;;;;2572627;56;1114;-85
2021/07/19 02:47:54;0.00;0.00;0.62;0.00;0.00;0.62;;;;;21.50;1.20;;;;;;2572606;56;1145;-85
2021/07/19 02:50:24;160577.00;0.54;278.03;0.00;0.00;0.62;;;;;21.40;1.20;;;;;;2573405;56;1159;-85
2021/07/19 02:52:57;0.00;0.00;0.62;0.00;0.00;0.62;;;;;21.20;1.40;;;;;;2576042;55;1104;-84
2021/07/19 02:55:24;0.00;0.00;0.62;0.00;0.00;0.62;;;;;21.20;1.30;;;;;;2573989;56;1099;-85
2021/07/19 02:57:51;0.00;0.00;0.62;0.00;0.00;0.62;;;;;21.30;1.40;;;;;;2572164;56;1926;-84
2021/07/19 03:00:19;0.00;0.00;0.62;0.00;0.00;0.62;;;;;21.40;1.50;;;;;;2575425;55;1187;-85
2021/07/19 03:02:51;91552.00;0.31;158.99;0.00;0.00;0.62;;;;;21.60;1.00;;;;;;2572916;56;1271;-85
2021/07/19 03:05:21;224065.00;0.75;387.34;34644.00;0.12;60.62;;;;;21.50;1.40;;;;;;2572872;56;1140;-85
2021/07/19 03:07:55;78053.00;0.26;135.67;0.00;0.00;0.62;;;;;21.40;1.20;;;;;;2573003;56;1335;-85
2021/07/19 03:10:25;0.00;0.00;0.62;0.00;0.00;0.62;;;;;21.50;1.40;;;;;;2576933;55;1219;-85
2021/07/19 03:12:57;101032.00;0.34;175.35;0.00;0.00;0.62;;;;;21.60;1.60;;;;;;2574605;56;1176;-85
2021/07/19 03:15:28;61443.00;0.20;106.97;0.00;0.00;0.62;;;;;21.80;1.00;;;;;;2574539;56;1368;-85
2021/07/19 03:17:56;0.00;0.00;0.62;0.00;0.00;0.62;;;;;21.60;1.10;;;;;;2574693;56;1957;-85
2021/07/19 03:20:25;396432.00;1.32;683.67;166255.00;0.55;287.82;;;;;21.60;1.00;;;;;;2575880;55;1240;-85
2021/07/19 03:22:53;189219.00;0.63;327.36;28611.00;0.10;50.18;;;;;21.30;1.40;;;;;;2575213;55;1137;-84
2021/07/19 03:25:25;31613.00;0.11;55.37;0.00;0.00;0.62;;;;;21.00;2.10;;;;;;2575961;56;1129;-85
2021/07/19 03:27:53;99022.00;0.33;171.88;0.00;0.00;0.62;;;;;20.80;2.70;;;;;;2573190;56;1145;-85
2021/07/19 03:30:21;346664.00;1.16;598.13;108599.00;0.36;188.41;;;;;20.90;2.60;;;;;;2574539;55;1136;-84
2021/07/19 03:32:50;249089.00;0.83;430.38;35401.00;0.12;61.93;;;;;20.90;3.10;;;;;;2576515;55;1096;-85
2021/07/19 03:35:19;0.00;0.00;0.62;0.00;0.00;0.62;;;;;21.10;2.40;;;;;;2575940;55;1051;-84
2021/07/19 03:37:47;257611.00;0.86;445.04;62817.00;0.21;109.35;;;;;21.20;2.10;;;;;;2576126;55;1955;-84
2021/07/19 03:40:17;32179.00;0.11;56.35;0.00;0.00;0.62;;;;;21.40;1.60;;;;;;2574913;55;1118;-85
2021/07/19 03:42:47;134379.00;0.45;232.88;0.00;0.00;0.62;;;;;21.40;1.50;;;;;;2575324;55;1622;-85
2021/07/19 03:45:15;0.00;0.00;0.62;0.00;0.00;0.62;;;;;21.40;1.30;;;;;;2574113;55;1110;-85
2021/07/19 03:47:42;26213.00;0.09;46.03;0.00;0.00;0.62;;;;;21.30;1.30;;;;;;2574261;56;1387;-85
2021/07/19 03:50:11;43626.00;0.15;76.16;0.00;0.00;0.62;;;;;21.00;1.30;;;;;;2573515;56;1160;-85
2021/07/19 03:52:39;0.00;0.00;0.62;0.00;0.00;0.62;;;;;20.60;2.70;;;;;;2573396;55;1093;-85
2021/07/19 03:55:07;0.00;0.00;0.62;0.00;0.00;0.62;;;;;20.30;4.10;;;;;;2573143;56;1098;-85
2021/07/19 03:57:36;111022.00;0.37;192.59;0.00;0.00;0.62;;;;;20.40;3.70;;;;;;2573559;56;1963;-85
2021/07/19 04:00:06;130457.00;0.43;226.12;9439.00;0.03;16.98;;;;;20.40;3.70;;;;;;2573276;56;1085;-85
2021/07/19 04:02:37;148616.00;0.50;257.42;19642.00;0.07;34.65;;;;;20.20;4.00;;;;;;2573702;55;1118;-85
2021/07/19 04:05:06;165242.00;0.55;286.07;69058.00;0.23;120.13;;;;;20.30;4.30;;;;;;2573686;56;1051;-85
2021/07/19 04:07:36;127145.00;0.42;220.41;0.00;0.00;0.62;;;;;20.40;4.40;;;;;;2573869;56;1312;-85
2021/07/19 04:10:06;0.00;0.00;0.62;0.00;0.00;0.62;;;;;20.60;4.20;;;;;;2573382;56;1077;-85
2021/07/19 04:12:34;16927.00;0.06;29.95;0.00;0.00;0.62;;;;;20.70;3.10;;;;;;2573506;56;1144;-85
2021/07/19 04:15:01;242228.00;0.81;418.58;53418.00;0.18;93.10;;;;;20.80;3.60;;;;;;2574758;56;1172;-86
2021/07/19 04:17:31;0.00;0.00;0.62;0.00;0.00;0.62;;;;;21.20;3.30;;;;;;2575155;56;1906;-85
2021/07/19 04:19:59;0.00;0.00;0.62;0.00;0.00;0.62;;;;;21.50;1.50;;;;;;2575357;56;1073;-86
2021/07/19 04:22:27;87090.00;0.29;151.28;0.00;0.00;0.62;;;;;21.30;1.60;;;;;;2575129;56;1125;-86
2021/07/19 04:24:54;0.00;0.00;0.62;0.00;0.00;0.62;;;;;21.20;1.30;;;;;;2575710;56;1137;-86
2021/07/19 04:27:21;106470.00;0.35;184.74;0.00;0.00;0.62;;;;;21.20;1.30;;;;;;2575902;55;1359;-86
2021/07/19 04:29:50;149728.00;0.50;259.34;26053.00;0.09;45.75;;;;;21.20;1.90;;;;;;2575928;56;1156;-84
2021/07/19 04:32:20;67760.00;0.23;117.89;0.00;0.00;0.62;;;;;21.50;2.00;;;;;;2576005;56;1124;-86
2021/07/19 04:34:49;123713.00;0.41;214.49;5051.00;0.02;9.37;;;;;21.90;1.40;;;;;;2576255;55;1073;-86
2021/07/19 04:37:16;27931.00;0.09;49.00;0.00;0.00;0.62;;;;;21.90;1.30;;;;;;2576437;55;1951;-89
2021/07/19 04:39:43;80047.00;0.27;139.12;8540.00;0.03;15.42;;;;;22.00;1.00;;;;;;2569697;55;1082;-87
2021/07/19 04:42:11;0.00;0.00;0.62;0.00;0.00;0.62;;;;;22.00;1.00;;;;;;2569701;55;971;-88
2021/07/19 04:44:39;10935.00;0.04;19.57;0.00;0.00;0.62;;;;;22.10;1.00;;;;;;2569698;55;971;-87
2021/07/19 04:47:07;91987.00;0.31;159.74;25128.00;0.08;44.15;;;;;22.00;1.00;;;;;;2576421;55;1362;-88
2021/07/19 04:49:34;66446.00;0.22;115.62;0.00;0.00;0.62;;;;;22.00;1.00;;;;;;2576638;55;1110;-89
2021/07/19 04:52:03;0.00;0.00;0.62;0.00;0.00;0.62;;;;;21.80;1.00;;;;;;2565491;55;948;-88
2021/07/19 04:54:37;155681.00;0.52;269.60;24190.00;0.08;42.53;;;;;22.10;1.20;;;;;;2576344;55;1050;-87
2021/07/19 04:57:07;553449.00;1.84;953.91;172360.00;0.57;298.33;;;;;22.30;1.00;;;;;;2569595;55;1948;-88
2021/07/19 04:59:39;0.00;0.00;0.62;0.00;0.00;0.62;;;;;22.60;1.00;;;;;;2573985;55;1092;-89
2021/07/19 05:02:11;178908.00;0.60;309.61;67343.00;0.22;117.17;;;;;22.50;1.00;;;;;;2576621;55;1079;-88
2021/07/19 05:04:40;210634.00;0.70;364.23;83101.00;0.28;144.39;;;;;22.10;1.00;;;;;;2565520;55;978;-88
2021/07/19 05:07:11;311306.00;1.04;537.35;83078.00;0.28;144.35;;;;;22.00;1.00;;;;;;2569664;55;1301;-88
2021/07/19 05:09:40;208469.00;0.69;360.50;76677.00;0.26;133.30;;;;;22.40;1.00;;;;;;2574018;55;935;-89
2021/07/19 05:12:11;275870.00;0.92;476.44;84106.00;0.28;146.13;;;;;22.80;1.00;;;;;;2569705;55;894;-89
2021/07/19 05:14:40;171736.00;0.57;297.26;67198.00;0.22;116.92;;;;;22.80;1.00;;;;;;2569730;55;925;-87
2021/07/19 05:17:10;241713.00;0.81;417.70;60336.00;0.20;105.06;;;;;23.00;1.00;;;;;;2576239;55;1890;-88
2021/07/19 05:19:38;239653.00;0.80;414.15;72671.00;0.24;126.38;;;;;23.10;1.00;;;;;;2569693;55;996;-88
2021/07/19 05:22:10;344868.00;1.15;595.04;136398.00;0.45;236.36;;;;;23.10;1.00;;;;;;2576193;55;943;-89
2021/07/19 05:24:37;571649.00;1.91;985.29;211375.00;0.70;365.50;;;;;22.80;1.00;;;;;;2578282;55;973;-88
2021/07/19 05:27:05;239488.00;0.80;413.87;76522.00;0.26;133.03;;;;;23.20;1.00;;;;;;2565352;55;1371;-88
2021/07/19 05:29:34;410813.00;1.37;708.39;122674.00;0.41;212.69;;;;;23.10;1.00;;;;;;2569722;55;1061;-88
2021/07/19 05:32:01;94266.00;0.31;163.67;0.00;0.00;0.62;;;;;23.00;1.00;;;;;;2573979;55;991;-89
2021/07/19 05:34:27;155873.00;0.52;269.93;0.00;0.00;0.62;;;;;23.00;1.00;;;;;;2565439;55;1048;-87
2021/07/19 05:36:54;208153.00;0.69;359.96;73359.00;0.24;127.56;;;;;23.10;1.00;;;;;;2569674;55;1432;-88
2021/07/19 05:39:23;0.00;0.00;0.62;0.00;0.00;0.62;;;;;22.90;1.00;;;;;;2576242;55;982;-87
2021/07/19 05:41:50;241056.00;0.80;416.57;46294.00;0.15;80.78;;;;;23.00;1.00;;;;;;2578465;55;911;-87
2021/07/19 05:44:17;0.00;0.00;0.62;0.00;0.00;0.62;;;;;22.90;1.00;;;;;;2576598;55;1110;-87
2021/07/19 05:46:44;0.00;0.00;0.62;0.00;0.00;0.62;;;;;23.20;2.70;;;;;;2576574;55;1449;-88
2021/07/19 05:49:11;145943.00;0.49;252.82;5057.00;0.02;9.38;;;;;24.20;1.00;;;;;;2573974;55;1048;-85
2021/07/19 05:51:37;0.00;0.00;0.62;0.00;0.00;0.62;;;;;25.60;2.00;;;;;;2576478;55;1109;-86
2021/07/19 05:54:05;0.00;0.00;0.62;0.00;0.00;0.62;;;;;27.00;1.00;;;;;;2575475;55;1027;-88
2021/07/19 05:56:33;0.00;0.00;0.62;0.00;0.00;0.62;;;;;28.00;1.00;;;;;;2573958;55;1320;-89
2021/07/19 05:59:01;0.00;0.00;0.62;0.00;0.00;0.62;;;;;29.30;1.00;;;;;;2569600;55;1955;-89
2021/07/19 06:01:28;0.00;0.00;0.62;0.00;0.00;0.62;;;;;30.20;1.00;;;;;;2576544;55;1071;-90
2021/07/19 06:03:55;0.00;0.00;0.62;0.00;0.00;0.62;;;;;30.70;1.00;;;;;;2576250;55;917;-89
2021/07/19 06:06:22;141854.00;0.47;245.77;75992.00;0.25;132.11;;;;;31.20;1.00;;;;;;2576512;55;1288;-89
2021/07/19 06:08:49;0.00;0.00;0.62;0.00;0.00;0.62;;;;;32.40;1.00;;;;;;2569658;55;934;-89
2021/07/19 06:11:16;0.00;0.00;0.62;0.00;0.00;0.62;;;;;33.20;1.00;;;;;;2578730;55;1549;-87
2021/07/19 06:13:44;18712.00;0.06;33.04;0.00;0.00;0.62;;;;;34.10;1.00;;;;;;2565426;55;975;-87
2021/07/19 06:16:11;0.00;0.00;0.62;0.00;0.00;0.62;;;;;33.80;1.00;;;;;;2569622;55;1392;-87
2021/07/19 06:18:38;179684.00;0.60;310.95;35565.00;0.12;62.21;;;;;34.10;1.00;;;;;;2576443;55;1961;-87
2021/07/19 06:21:05;0.00;0.00;0.62;0.00;0.00;0.62;;;;;34.90;1.00;;;;;;2576572;55;1110;-88
2021/07/19 06:23:31;132912.00;0.44;230.35;0.00;0.00;0.62;;;;;35.20;1.00;;;;;;2575861;55;1015;-87
2021/07/19 06:25:58;406382.00;1.35;700.78;109225.00;0.36;189.49;;;;;34.70;1.00;;;;;;2569526;55;1426;-87
2021/07/19 06:28:25;243194.00;0.81;420.25;96312.00;0.32;167.21;;;;;34.70;1.00;;;;;;2569660;55;955;-87
2021/07/19 06:30:54;0.00;0.00;0.62;0.00;0.00;0.62;;;;;34.50;1.00;;;;;;2578716;55;954;-88
2021/07/19 06:33:21;0.00;0.00;0.62;0.00;0.00;0.62;;;;;34.90;1.00;;;;;;2576521;55;1097;-89
2021/07/19 06:35:48;53764.00;0.18;93.70;0.00;0.00;0.62;;;;;35.20;1.00;;;;;;2569583;55;1328;-87
2021/07/19 06:38:15;0.00;0.00;0.62;0.00;0.00;0.62;;;;;36.40;1.00;;;;;;2569619;55;1952;-87
2021/07/19 06:40:42;0.00;0.00;0.62;0.00;0.00;0.62;;;;;36.40;1.00;;;;;;2569608;55;963;-87
2021/07/19 06:43:09;0.00;0.00;0.62;0.00;0.00;0.62;;;;;35.60;1.00;;;;;;2576422;55;1097;-90
2021/07/19 06:45:36;181254.00;0.60;313.65;20162.00;0.07;35.55;;;;;36.20;1.00;;;;;;2576307;55;1282;-90
2021/07/19 06:48:04;0.00;0.00;0.62;0.00;0.00;0.62;;;;;36.40;1.00;;;;;;2576334;55;1036;-90
2021/07/19 06:50:31;108317.00;0.36;187.93;0.00;0.00;0.62;;;;;36.90;1.00;;;;;;2569549;55;931;-89
2021/07/19 06:52:59;0.00;0.00;0.62;0.00;0.00;0.62;;;;;36.50;1.00;;;;;;2576303;55;1030;-88
2021/07/19 06:55:26;0.00;0.00;0.62;0.00;0.00;0.62;;;;;36.90;1.00;;;;;;2578614;55;1359;-88
2021/07/19 06:57:54;0.00;0.00;0.62;0.00;0.00;0.62;;;;;36.40;1.00;;;;;;2578614;55;1933;-88
2021/07/19 07:00:22;0.00;0.00;0.62;0.00;0.00;0.62;;;;;36.50;1.00;;;;;;2576335;55;970;-89
2021/07/19 07:02:49;18497.00;0.06;32.67;0.00;0.00;0.62;;;;;36.30;1.00;;;;;;2578081;55;1643;-86
2021/07/19 07:05:17;0.00;0.00;0.62;0.00;0.00;0.62;;;;;36.20;1.00;;;;;;2575756;56;1069;-86
2021/07/19 07:07:45;0.00;0.00;0.62;0.00;0.00;0.62;;;;;36.70;1.00;;;;;;2575856;56;1245;-85
2021/07/19 07:10:13;117149.00;0.39;203.16;0.00;0.00;0.62;;;;;36.30;1.00;;;;;;2575884;56;1145;-87
2021/07/19 07:12:43;0.00;0.00;0.62;0.00;0.00;0.62;;;;;36.60;1.00;;;;;;2575926;56;1123;-86
2021/07/19 07:15:11;0.00;0.00;0.62;0.00;0.00;0.62;;;;;36.40;1.00;;;;;;2576030;56;1062;-86
2021/07/19 07:17:41;189708.00;0.63;328.21;18257.00;0.06;32.25;;;;;37.20;1.00;;;;;;2575910;55;1952;-86
2021/07/19 07:20:10;0.00;0.00;0.62;0.00;0.00;0.62;;;;;37.00;1.00;;;;;;2576214;55;1066;-86
2021/07/19 07:22:38;0.00;0.00;0.62;0.00;0.00;0.62;;;;;37.30;1.00;;;;;;2576042;56;1122;-86
2021/07/19 07:25:06;0.00;0.00;0.62;0.00;0.00;0.62;;;;;37.20;1.00;;;;;;2576408;55;1109;-86
2021/07/19 07:27:34;34303.00;0.11;60.03;0.00;0.00;0.62;;;;;37.10;1.00;;;;;;2576276;55;1308;-85
2021/07/19 07:30:01;166478.00;0.55;288.20;53203.00;0.18;92.73;;;;;37.70;1.00;;;;;;2576175;56;1091;-86
2021/07/19 07:32:28;0.00;0.00;0.62;0.00;0.00;0.62;;;;;37.60;1.00;;;;;;2576218;55;1280;-87
2021/07/19 07:34:55;116899.00;0.39;202.73;0.00;0.00;0.62;;;;;37.20;1.00;;;;;;2576020;55;1144;-87
2021/07/19 07:37:22;0.00;0.00;0.62;0.00;0.00;0.62;;;;;36.60;1.00;;;;;;2578027;55;1276;-85
2021/07/19 07:39:50;0.00;0.00;0.62;0.00;0.00;0.62;;;;;36.50;1.00;;;;;;2576530;55;1956;-84
2021/07/19 07:42:17;82394.00;0.27;143.17;0.00;0.00;0.62;;;;;36.70;1.00;;;;;;2576680;55;1118;-86
2021/07/19 07:44:44;0.00;0.00;0.62;0.00;0.00;0.62;;;;;36.00;1.00;;;;;;2576719;55;1100;-85
2021/07/19 07:47:11;0.00;0.00;0.62;0.00;0.00;0.62;;;;;36.10;1.00;;;;;;2576663;55;1272;-85
2021/07/19 07:49:39;0.00;0.00;0.62;0.00;0.00;0.62;;;;;36.20;1.00;;;;;;2576626;55;1079;-84
2021/07/19 07:52:07;101674.00;0.34;176.46;0.00;0.00;0.62;;;;;36.10;1.00;;;;;;2576584;55;1093;-86
2021/07/19 07:54:34;0.00;0.00;0.62;0.00;0.00;0.62;;;;;36.60;1.00;;;;;;2576651;55;1252;-86
2021/07/19 07:57:03;18403.00;0.06;32.50;0.00;0.00;0.62;;;;;36.50;1.00;;;;;;2576569;55;1343;-85
2021/07/19 07:59:31;170833.00;0.57;295.70;55002.00;0.18;95.84;;;;;36.70;1.00;;;;;;2576599;55;1951;-86
2021/07/19 08:01:59;162917.00;0.54;282.06;52489.00;0.17;91.49;;;;;37.20;1.00;;;;;;2576679;55;1098;-86
2021/07/19 08:04:28;165678.00;0.55;286.82;60847.00;0.20;105.94;;;;;37.60;1.00;;;;;;2576638;55;960;-86
2021/07/19 08:06:54;208629.00;0.70;360.78;54602.00;0.18;95.14;;;;;37.80;1.00;;;;;;2576596;55;1397;-85
2021/07/19 08:09:21;194497.00;0.65;336.45;49327.00;0.16;86.02;;;;;36.50;1.00;;;;;;2576568;55;1108;-85
2021/07/19 08:11:48;377755.00;1.26;651.57;137917.00;0.46;238.98;;;;;36.40;1.00;;;;;;2576527;55;1085;-87
2021/07/19 08:14:17;180948.00;0.60;313.12;51832.00;0.17;90.35;;;;;36.20;1.00;;;;;;2576331;55;1133;-84
2021/07/19 08:16:44;244072.00;0.81;421.76;57333.00;0.19;99.87;;;;;36.60;1.00;;;;;;2576510;55;1370;-86
2021/07/19 08:19:13;376331.00;1.25;649.12;77991.00;0.26;135.57;;;;;36.70;1.00;;;;;;2576534;55;1953;-86
2021/07/19 08:21:42;165353.00;0.55;286.26;59255.00;0.20;103.19;;;;;36.10;1.00;;;;;;2576582;55;1066;-86
2021/07/19 08:24:10;200452.00;0.67;346.70;69269.00;0.23;120.50;;;;;35.30;1.00;;;;;;2576556;55;1098;-83
2021/07/19 08:26:37;173253.00;0.58;299.87;56194.00;0.19;97.90;;;;;35.30;1.00;;;;;;2576530;55;1331;-86
2021/07/19 08:29:06;165603.00;0.55;286.69;60967.00;0.20;106.15;;;;;36.00;1.00;;;;;;2576619;55;1073;-85
2021/07/19 08:31:35;170631.00;0.57;295.35;57162.00;0.19;99.57;;;;;36.10;1.00;;;;;;2576566;55;1119;-86
2021/07/19 08:34:04;165904.00;0.55;287.21;56493.00;0.19;98.41;;;;;35.90;1.00;;;;;;2576608;55;1099;-85
2021/07/19 08:36:31;168518.00;0.56;291.71;62217.00;0.21;108.31;;;;;36.60;1.00;;;;;;2576603;55;1386;-86
2021/07/19 08:38:58;166837.00;0.56;288.82;56517.00;0.19;98.46;;;;;37.30;1.00;;;;;;2576568;55;1942;-85
2021/07/19 08:41:25;166572.00;0.56;288.36;51662.00;0.17;90.06;;;;;36.90;1.00;;;;;;2576641;55;1011;-85
2021/07/19 08:43:52;182716.00;0.61;316.17;57953.00;0.19;100.94;;;;;36.60;1.00;;;;;;2576535;55;1094;-85
2021/07/19 08:46:19;210230.00;0.70;363.53;54362.00;0.18;94.73;;;;;36.40;1.00;;;;;;2576593;55;1358;-85
2021/07/19 08:48:51;306032.00;1.02;528.29;55350.00;0.18;96.44;;;;;36.40;1.00;;;;;;2576586;55;960;-85
2021/07/19 08:51:19;167912.00;0.56;290.67;54036.00;0.18;94.17;;;;;36.40;1.00;;;;;;2576618;55;1093;-85
2021/07/19 08:53:46;170398.00;0.57;294.95;61696.00;0.21;107.41;;;;;36.30;1.00;;;;;;2576615;55;1079;-85
2021/07/19 08:56:15;164113.00;0.55;284.13;61537.00;0.21;107.13;;;;;35.50;1.00;;;;;;2576586;55;1295;-85
2021/07/19 08:58:43;188125.00;0.63;325.48;60168.00;0.20;104.77;;;;;36.10;1.00;;;;;;2576564;55;1953;-85
2021/07/19 09:01:11;323261.00;1.08;557.90;107125.00;0.36;185.87;;;;;36.00;1.00;;;;;;2576509;55;1051;-84
2021/07/19 09:03:38;188658.00;0.63;326.40;63881.00;0.21;111.19;;;;;35.60;1.00;;;;;;2576543;55;1086;-85
2021/07/19 09:06:07;167101.00;0.56;289.27;64746.00;0.22;112.68;;;;;35.20;1.00;;;;;;2576602;55;1365;-86
2021/07/19 09:08:34;219157.00;0.73;378.89;59984.00;0.20;104.45;;;;;35.10;1.00;;;;;;2576586;55;1105;-85
2021/07/19 09:11:09;211970.00;0.71;366.53;58584.00;0.20;102.03;;;;;34.70;1.00;;;;;;2576505;55;1132;-85
2021/07/19 09:13:35;358868.00;1.20;619.10;108621.00;0.36;188.45;;;;;34.50;1.00;;;;;;2576499;55;1065;-85
2021/07/19 09:16:02;189949.00;0.63;328.62;51093.00;0.17;89.08;;;;;34.60;1.00;;;;;;2576574;55;1265;-85
2021/07/19 09:18:30;167277.00;0.56;289.58;65623.00;0.22;114.20;;;;;34.50;1.00;;;;;;2576498;55;1961;-85
2021/07/19 09:20:57;171924.00;0.57;297.58;63863.00;0.21;111.15;;;;;34.70;1.00;;;;;;2576554;55;1094;-85
2021/07/19 09:23:30;131977.00;0.44;228.74;0.00;0.00;0.62;;;;;34.50;1.00;;;;;;2575857;55;1106;-85
2021/07/19 09:25:57;169857.00;0.57;294.02;66864.00;0.22;116.34;;;;;34.50;1.00;;;;;;2576593;55;1430;-85
2021/07/19 09:28:30;176485.00;0.59;305.44;60959.00;0.20;106.13;;;;;34.50;1.00;;;;;;2576309;55;1118;-85
2021/07/19 09:31:06;169269.00;0.56;293.01;51315.00;0.17;89.46;;;;;33.90;1.00;;;;;;2576459;55;1128;-88
2021/07/19 09:33:35;176108.00;0.59;304.79;64103.00;0.21;111.57;;;;;32.40;1.00;;;;;;2578760;55;1544;-87
2021/07/19 09:36:03;169527.00;0.57;293.45;65901.00;0.22;114.68;;;;;32.30;1.00;;;;;;2576550;55;1258;-87
2021/07/19 09:38:32;178132.00;0.59;308.27;64989.00;0.22;113.10;;;;;32.30;1.00;;;;;;2576567;55;1944;-87
2021/07/19 09:41:01;0.00;0.00;0.62;0.00;0.00;0.62;;;;;31.90;1.00;;;;;;2576581;55;1094;-85
2021/07/19 09:43:32;217361.00;0.72;375.80;67210.00;0.22;116.94;;;;;31.00;1.00;;;;;;2576338;55;1122;-87
2021/07/19 09:46:01;284099.00;0.95;490.58;35655.00;0.12;62.37;;;;;30.90;1.00;;;;;;2576354;55;1391;-87
2021/07/19 09:48:28;68705.00;0.23;119.52;0.00;0.00;0.62;;;;;30.90;1.00;;;;;;2576532;55;1049;-87
2021/07/19 09:50:56;82338.00;0.27;143.08;0.00;0.00;0.62;;;;;30.80;1.00;;;;;;2576513;55;1092;-88
2021/07/19 09:53:33;0.00;0.00;0.62;0.00;0.00;0.62;;;;;31.00;1.00;;;;;;2576486;55;1069;-87
2021/07/19 09:56:12;0.00;0.00;0.62;0.00;0.00;0.62;;;;;31.30;1.00;;;;;;2576314;55;1413;-87
2021/07/19 09:58:39;0.00;0.00;0.62;0.00;0.00;0.62;;;;;32.00;1.00;;;;;;2576501;55;1949;-88
2021/07/19 10:01:06;331907.00;1.11;572.76;135093.00;0.45;234.11;;;;;32.20;1.00;;;;;;2576497;55;1075;-88
2021/07/19 10:03:33;0.00;0.00;0.62;0.00;0.00;0.62;;;;;32.00;1.00;;;;;;2576336;55;1101;-86
2021/07/19 10:06:06;10563.00;0.04;18.92;0.00;0.00;0.62;;;;;32.20;1.00;;;;;;2576436;55;1272;-87
2021/07/19 10:08:36;0.00;0.00;0.62;0.00;0.00;0.62;;;;;32.30;1.00;;;;;;2576541;55;1094;-87
2021/07/19 10:11:15;0.00;0.00;0.62;0.00;0.00;0.62;;;;;32.20;1.00;;;;;;2576568;55;1099;-86